Time;durP1;ratioP1;P1;durP2;ratioP2;P2;SDS_P1;SDS_P2;PMS_P1;PMS_P2;Temp;Humidity;BMP_temperature;BMP_pressure;BME280_temperature;BME280_humidity;BME280_pressure;Samples;Min_cycle;Max_cycle;Signal;HPM_P1;HPM_P2
2021/10/11 00:00:11;;;;;;;12.20;6.40;;;;;;;5.80;81.59;101673.33;112422;1192;75597;-79
2021/10/11 00:02:39;;;;;;;9.40;5.50;;;;;;;5.80;81.53;101672.77;112481;1192;72155;-78
2021/10/11 00:05:06;;;;;;;10.00;5.50;;;;;;;5.81;81.33;101664.07;112469;1192;72479;-78
2021/10/11 00:07:33;;;;;;;10.70;5.90;;;;;;;5.82;81.54;101665.20;112376;1192;61117;-79
2021/10/11 00:09:59;;;;;;;9.60;5.20;;;;;;;5.83;81.79;101674.31;112586;1192;61238;-79
2021/10/11 00:12:26;;;;;;;11.00;5.40;;;;;;;5.81;81.69;101670.04;112476;1192;60947;-78
2021/10/11 00:14:52;;;;;;;10.00;5.70;;;;;;;5.81;81.83;101667.64;112385;1192;71060;-77
2021/10/11 00:17:20;;;;;;;9.00;5.50;;;;;;;5.79;81.81;101665.45;112374;1192;61072;-78
2021/10/11 00:19:50;;;;;;;11.80;6.30;;;;;;;5.77;82.13;101669.81;112403;1192;61126;-79
2021/10/11 00:22:19;;;;;;;10.20;6.00;;;;;;;5.77;82.12;101674.38;112399;1193;62160;-78
2021/10/11 00:24:45;;;;;;;10.10;5.40;;;;;;;5.76;82.16;101677.29;112349;1192;75568;-79
2021/10/11 00:27:12;;;;;;;10.50;6.20;;;;;;;5.75;82.09;101675.08;112276;1193;70522;-78
2021/10/11 00:29:39;;;;;;;12.30;6.10;;;;;;;5.76;82.34;101668.73;112324;1192;72756;-79
2021/10/11 00:32:08;;;;;;;10.50;6.30;;;;;;;5.75;82.24;101666.11;112273;1192;61059;-78
2021/10/11 00:34:37;;;;;;;9.10;5.70;;;;;;;5.73;82.46;101672.03;112449;1192;61434;-79
2021/10/11 00:37:05;;;;;;;13.30;6.10;;;;;;;5.73;82.63;101673.47;112479;1192;74545;-77
2021/10/11 00:39:32;;;;;;;12.40;6.20;;;;;;;5.72;82.65;101666.17;112386;1192;72640;-79
2021/10/11 00:41:59;;;;;;;9.80;6.80;;;;;;;5.70;83.17;101660.90;112379;1193;72658;-80
2021/10/11 00:44:25;;;;;;;12.70;7.30;;;;;;;5.69;83.43;101662.87;112371;1192;61421;-79
2021/10/11 00:46:52;;;;;;;11.20;6.60;;;;;;;5.70;83.59;101657.73;112519;1192;61432;-78
2021/10/11 00:49:19;;;;;;;12.90;6.50;;;;;;;5.71;84.09;101655.04;112246;1193;75797;-81
2021/10/11 00:51:46;;;;;;;11.90;7.00;;;;;;;5.72;84.62;101659.31;112655;1192;72243;-79
2021/10/11 00:54:13;;;;;;;12.40;7.00;;;;;;;5.75;84.55;101655.08;112444;1193;73584;-79
2021/10/11 00:56:40;;;;;;;16.00;7.00;;;;;;;5.78;84.58;101653.80;112640;1192;62879;-80
2021/10/11 00:59:07;;;;;;;10.40;6.80;;;;;;;5.81;84.71;101657.73;112279;1192;61100;-78
2021/10/11 01:01:34;;;;;;;11.80;6.50;;;;;;;5.86;84.59;101660.34;112863;1192;74778;-78
2021/10/11 01:04:04;;;;;;;12.10;6.80;;;;;;;5.91;84.44;101657.14;112428;1192;69698;-79
2021/10/11 01:06:39;;;;;;;10.70;6.10;;;;;;;5.96;84.29;101656.79;112562;1192;72490;-76
2021/10/11 01:09:08;;;;;;;10.00;6.40;;;;;;;6.01;84.16;101660.95;112429;1192;61797;-77
2021/10/11 01:11:36;;;;;;;13.00;7.60;;;;;;;6.05;84.37;101663.44;112520;1192;61151;-78
2021/10/11 01:14:04;;;;;;;12.20;7.20;;;;;;;6.09;84.69;101654.33;112317;1192;75584;-77
2021/10/11 01:16:31;;;;;;;12.40;7.70;;;;;;;6.12;84.39;101647.41;112262;1192;71460;-79
2021/10/11 01:18:58;;;;;;;12.60;6.60;;;;;;;6.18;84.32;101634.52;112369;1192;71531;-78
2021/10/11 01:21:25;;;;;;;13.30;7.30;;;;;;;6.23;84.28;101632.53;112263;1193;62915;-80
2021/10/11 01:23:53;;;;;;;15.40;6.80;;;;;;;6.27;84.05;101641.48;112437;1192;60964;-80
2021/10/11 01:26:21;;;;;;;12.80;7.80;;;;;;;6.29;83.93;101637.27;114628;1192;75944;-79
2021/10/11 01:28:47;;;;;;;15.40;8.00;;;;;;;6.35;84.02;101630.83;112465;1193;73151;-78
2021/10/11 01:31:14;;;;;;;13.60;7.00;;;;;;;6.39;84.25;101629.09;112340;1193;61043;-79
2021/10/11 01:33:40;;;;;;;16.10;7.40;;;;;;;6.44;84.18;101627.97;112255;1192;62957;-79
2021/10/11 01:36:07;;;;;;;15.40;8.10;;;;;;;6.48;83.98;101622.17;112312;1192;63139;-79
2021/10/11 01:38:33;;;;;;;10.80;6.90;;;;;;;6.52;84.14;101618.38;112382;1192;74709;-77
2021/10/11 01:41:00;;;;;;;13.30;7.50;;;;;;;6.56;84.20;101624.08;112176;1193;72559;-79
2021/10/11 01:43:27;;;;;;;15.10;7.50;;;;;;;6.59;84.41;101624.13;112369;1192;61056;-77
2021/10/11 01:45:53;;;;;;;14.50;8.20;;;;;;;6.64;84.46;101620.39;112353;1192;61063;-79
2021/10/11 01:48:20;;;;;;;13.20;7.80;;;;;;;6.68;84.34;101617.73;112493;1189;61158;-78
2021/10/11 01:50:47;;;;;;;15.60;8.20;;;;;;;6.73;84.72;101614.58;112256;1193;75739;-79
2021/10/11 01:53:13;;;;;;;13.20;7.20;;;;;;;6.77;84.47;101610.05;112399;1192;72389;-78
2021/10/11 01:55:40;;;;;;;17.70;8.30;;;;;;;6.80;84.20;101602.73;112323;1192;72662;-79
2021/10/11 01:58:06;;;;;;;16.40;8.20;;;;;;;6.83;84.06;101602.30;112434;1192;61113;-78
2021/10/11 02:00:34;;;;;;;13.80;8.80;;;;;;;6.88;83.82;101604.88;112558;1192;61042;-78
2021/10/11 02:03:04;;;;;;;17.00;7.60;;;;;;;6.92;83.57;101605.77;112458;1193;74233;-80
2021/10/11 02:05:31;;;;;;;14.00;8.40;;;;;;;6.96;83.51;101612.66;112484;1192;71382;-79
2021/10/11 02:07:58;;;;;;;16.50;8.40;;;;;;;6.99;83.59;101610.09;112456;1192;73646;-78
2021/10/11 02:10:25;;;;;;;17.70;8.80;;;;;;;7.03;83.55;101602.95;112462;1193;62190;-78
2021/10/11 02:12:51;;;;;;;16.20;8.80;;;;;;;7.06;83.57;101598.80;112468;1193;62331;-78
2021/10/11 02:15:18;;;;;;;15.40;9.30;;;;;;;7.09;83.38;101596.44;112465;1192;61072;-78
2021/10/11 02:17:44;;;;;;;14.00;8.30;;;;;;;7.12;83.70;101589.00;112473;1192;61039;-78
2021/10/11 02:20:11;;;;;;;15.10;9.00;;;;;;;7.14;83.45;101588.48;112449;1192;61013;-78
2021/10/11 02:22:37;;;;;;;17.60;8.40;;;;;;;7.15;83.62;101594.31;112399;1192;60969;-78
2021/10/11 02:25:04;;;;;;;20.60;9.70;;;;;;;7.16;83.32;101592.17;112363;1192;62219;-78
2021/10/11 02:27:31;;;;;;;14.40;8.70;;;;;;;7.16;83.53;101589.52;112475;1192;74549;-78
2021/10/11 02:29:57;;;;;;;17.30;9.20;;;;;;;7.18;83.61;101582.80;112482;1192;72094;-78
2021/10/11 02:32:24;;;;;;;22.20;8.70;;;;;;;7.20;84.11;101581.95;112439;1193;73170;-78
2021/10/11 02:34:51;;;;;;;15.80;9.00;;;;;;;7.24;84.02;101589.19;112470;1193;62734;-79
2021/10/11 02:37:17;;;;;;;15.60;8.60;;;;;;;7.27;83.75;101585.60;112448;1192;60995;-77
2021/10/11 02:39:44;;;;;;;16.40;9.10;;;;;;;7.30;84.04;101583.53;112472;1193;74538;-78
2021/10/11 02:42:10;;;;;;;12.10;7.60;;;;;;;7.33;83.97;101580.52;112379;1193;61048;-78
2021/10/11 02:44:37;;;;;;;19.60;8.90;;;;;;;7.34;83.67;101580.54;112326;1192;60982;-78
2021/10/11 02:47:03;;;;;;;22.00;10.30;;;;;;;7.36;83.58;101572.14;112376;1193;61040;-79
2021/10/11 02:49:30;;;;;;;16.60;8.80;;;;;;;7.40;83.72;101573.20;112451;1193;61007;-80
2021/10/11 02:51:56;;;;;;;18.50;9.90;;;;;;;7.43;83.46;101572.58;112406;1192;61090;-78
2021/10/11 02:54:22;;;;;;;17.30;9.00;;;;;;;7.46;83.67;101573.17;112503;1193;61051;-79
2021/10/11 02:56:49;;;;;;;15.80;9.40;;;;;;;7.49;83.40;101573.13;112473;1192;60963;-79
2021/10/11 02:59:15;;;;;;;18.10;10.30;;;;;;;7.51;83.44;101572.38;112461;1191;61091;-79
2021/10/11 03:01:42;;;;;;;20.00;10.00;;;;;;;7.55;83.72;101572.77;112448;1193;62005;-79
2021/10/11 03:04:09;;;;;;;14.70;8.50;;;;;;;7.57;83.43;101573.99;112414;1193;61038;-78
2021/10/11 03:06:35;;;;;;;17.30;7.60;;;;;;;7.59;83.88;101572.06;112594;1192;61067;-79
2021/10/11 03:09:03;;;;;;;19.90;10.70;;;;;;;7.61;83.91;101572.79;112475;1192;61036;-78
2021/10/11 03:11:29;;;;;;;18.30;10.90;;;;;;;7.63;83.57;101575.75;112559;1193;63129;-78
2021/10/11 03:13:56;;;;;;;19.40;9.60;;;;;;;7.68;83.78;101578.19;112550;1193;61160;-80
2021/10/11 03:16:23;;;;;;;11.50;7.20;;;;;;;7.71;83.86;101573.30;112488;1192;75615;-79
2021/10/11 03:18:49;;;;;;;14.00;7.40;;;;;;;7.69;84.12;101576.80;112496;1193;61161;-79
2021/10/11 03:21:18;;;;;;;16.30;8.50;;;;;;;7.68;84.35;101579.40;112430;1192;73516;-79
2021/10/11 03:23:44;;;;;;;14.30;9.70;;;;;;;7.67;84.63;101576.80;112650;1193;61033;-79
2021/10/11 03:26:11;;;;;;;18.70;10.00;;;;;;;7.68;84.76;101573.06;112473;1192;61927;-78
2021/10/11 03:28:38;;;;;;;24.50;11.70;;;;;;;7.71;84.89;101572.66;112497;1193;75316;-78
2021/10/11 03:31:05;;;;;;;24.90;12.00;;;;;;;7.74;84.76;101573.44;112320;1193;71760;-78
2021/10/11 03:33:31;;;;;;;20.50;10.80;;;;;;;7.78;85.16;101575.69;112456;1193;73307;-78
2021/10/11 03:35:58;;;;;;;19.70;10.20;;;;;;;7.81;85.38;101574.06;111856;1178;62059;-78
2021/10/11 03:38:25;;;;;;;19.70;12.00;;;;;;;7.83;85.33;101578.85;112298;1193;61998;-79
2021/10/11 03:40:51;;;;;;;25.20;11.90;;;;;;;7.85;86.17;101575.59;112285;1193;74589;-78
2021/10/11 03:43:18;;;;;;;23.60;12.10;;;;;;;7.87;86.43;101573.70;111960;1191;71887;-78
2021/10/11 03:45:49;;;;;;;25.40;14.50;;;;;;;7.89;87.65;101571.25;112356;1193;73144;-78
2021/10/11 03:48:16;;;;;;;19.30;10.70;;;;;;;7.89;88.43;101577.40;112423;1193;62248;-78
2021/10/11 03:50:45;;;;;;;27.00;13.80;;;;;;;7.87;88.86;101577.23;112109;1193;61053;-79
2021/10/11 03:53:13;;;;;;;29.30;15.00;;;;;;;7.86;88.79;101579.04;112431;1193;74916;-78
2021/10/11 03:55:41;;;;;;;27.60;14.70;;;;;;;7.88;88.90;101580.15;112482;1193;71513;-79
2021/10/11 03:58:08;;;;;;;29.40;15.00;;;;;;;7.90;90.43;101578.87;112238;1193;73795;-78
2021/10/11 04:00:36;;;;;;;31.30;16.40;;;;;;;7.92;91.20;101576.93;112330;1193;61987;-79
2021/10/11 04:03:05;;;;;;;29.80;15.50;;;;;;;7.95;91.09;101565.92;112461;1193;61432;-79
2021/10/11 04:05:32;;;;;;;31.40;15.70;;;;;;;8.00;92.10;101562.98;112278;1193;75714;-79
2021/10/11 04:08:04;;;;;;;31.40;16.80;;;;;;;8.06;92.93;101557.94;112413;1192;71086;-76
2021/10/11 04:10:37;;;;;;;34.70;16.60;;;;;;;8.13;92.85;101556.02;112313;1192;72559;-79
2021/10/11 04:13:05;;;;;;;29.40;15.70;;;;;;;8.22;92.72;101558.23;112256;1193;62077;-77
2021/10/11 04:15:32;;;;;;;31.50;14.60;;;;;;;8.30;93.46;101557.73;112255;1193;60992;-77
2021/10/11 04:17:59;;;;;;;29.20;14.90;;;;;;;8.38;93.86;101550.41;112380;1193;74586;-79
2021/10/11 04:20:25;;;;;;;31.20;15.30;;;;;;;8.46;94.05;101548.55;112277;1193;61028;-80
2021/10/11 04:22:52;;;;;;;31.60;15.80;;;;;;;8.52;94.28;101553.39;112524;1192;73658;-77
2021/10/11 04:25:18;;;;;;;28.90;14.70;;;;;;;8.60;94.48;101557.89;112414;1193;61078;-77
2021/10/11 04:27:45;;;;;;;34.40;16.20;;;;;;;8.62;94.64;101558.32;112649;1192;61008;-80
2021/10/11 04:30:12;;;;;;;30.70;15.10;;;;;;;8.66;94.77;101559.05;112889;1192;74525;-79
2021/10/11 04:32:38;;;;;;;27.70;15.60;;;;;;;8.69;94.34;101561.39;112641;1192;72331;-79
2021/10/11 04:35:05;;;;;;;37.80;18.90;;;;;;;8.72;94.77;101560.94;112303;1192;72694;-80
2021/10/11 04:37:32;;;;;;;31.60;16.70;;;;;;;8.76;94.96;101552.50;112328;1191;62796;-79
2021/10/11 04:39:58;;;;;;;29.80;16.20;;;;;;;8.79;95.16;101553.99;112151;1191;61062;-77
2021/10/11 04:42:25;;;;;;;25.00;13.20;;;;;;;8.80;95.08;101561.06;112356;1192;61016;-80
2021/10/11 04:44:51;;;;;;;28.20;13.20;;;;;;;8.83;95.42;101563.52;112426;1193;60954;-84
2021/10/11 04:47:18;;;;;;;28.20;14.50;;;;;;;8.84;95.63;101567.13;112360;1193;72370;-80
2021/10/11 04:49:44;;;;;;;32.10;17.70;;;;;;;8.85;96.06;101572.67;112282;1193;61062;-77
2021/10/11 04:52:11;;;;;;;33.40;17.00;;;;;;;8.87;95.78;101566.27;112211;1192;60982;-79
2021/10/11 04:54:37;;;;;;;35.00;17.20;;;;;;;8.90;95.67;101565.98;112232;1193;61055;-79
2021/10/11 04:57:08;;;;;;;34.70;16.60;;;;;;;8.93;96.07;101563.08;112448;1192;72003;-79
2021/10/11 04:59:34;;;;;;;36.60;18.60;;;;;;;8.94;96.85;101562.23;112939;1192;73857;-78
2021/10/11 05:02:01;;;;;;;31.80;16.90;;;;;;;8.97;96.95;101562.01;113123;1193;61599;-79
2021/10/11 05:04:28;;;;;;;31.70;18.30;;;;;;;8.98;97.32;101560.77;112714;1193;61323;-79
2021/10/11 05:06:54;;;;;;;30.70;16.20;;;;;;;9.03;98.06;101560.40;112482;1192;60966;-79
2021/10/11 05:09:21;;;;;;;32.90;16.00;;;;;;;9.06;98.15;101562.19;112505;1193;69640;-79
2021/10/11 05:11:48;;;;;;;28.40;16.70;;;;;;;9.09;98.58;101564.23;112269;1192;61008;-79
2021/10/11 05:14:14;;;;;;;29.60;13.90;;;;;;;9.11;98.25;101564.36;112245;1193;61538;-79
2021/10/11 05:16:41;;;;;;;38.00;17.80;;;;;;;9.13;98.45;101562.08;112471;1193;62452;-78
2021/10/11 05:19:09;;;;;;;35.90;18.40;;;;;;;9.17;99.08;101565.11;112472;1192;62115;-79
2021/10/11 05:21:37;;;;;;;35.30;17.70;;;;;;;9.20;99.26;101569.40;112376;1193;72160;-78
2021/10/11 05:24:04;;;;;;;34.70;18.40;;;;;;;9.22;99.79;101569.16;112486;1193;74137;-78
2021/10/11 05:26:31;;;;;;;36.00;18.70;;;;;;;9.24;99.93;101569.86;112284;1193;62200;-79
2021/10/11 05:28:58;;;;;;;33.50;17.90;;;;;;;9.26;99.88;101568.27;112358;1192;61435;-78
2021/10/11 05:31:25;;;;;;;27.90;12.90;;;;;;;9.28;99.99;101572.50;112518;1192;74514;-79
2021/10/11 05:33:51;;;;;;;42.00;18.50;;;;;;;9.29;100.00;101570.12;112621;1193;61754;-77
2021/10/11 05:36:18;;;;;;;38.30;19.20;;;;;;;9.32;100.00;101569.28;112431;1192;72584;-80
2021/10/11 05:38:45;;;;;;;27.40;12.90;;;;;;;9.35;100.00;101575.70;112537;1193;61938;-80
2021/10/11 05:41:11;;;;;;;36.10;17.30;;;;;;;9.38;100.00;101580.58;112492;1192;61011;-80
2021/10/11 05:43:38;;;;;;;38.10;17.80;;;;;;;9.40;100.00;101581.60;112326;1194;74398;-82
2021/10/11 05:46:04;;;;;;;32.10;17.60;;;;;;;9.44;100.00;101583.90;112510;1192;61148;-80
2021/10/11 05:48:35;;;;;;;35.90;19.80;;;;;;;9.47;100.00;101585.16;112617;1192;73630;-80
2021/10/11 05:51:02;;;;;;;36.20;17.30;;;;;;;9.50;100.00;101584.00;112472;1192;61002;-85
2021/10/11 05:53:28;;;;;;;40.70;20.20;;;;;;;9.53;100.00;101584.80;112465;1193;61242;-83
2021/10/11 05:55:55;;;;;;;27.20;13.60;;;;;;;9.57;100.00;101581.56;112597;1192;75098;-81
2021/10/11 05:58:22;;;;;;;34.00;16.40;;;;;;;9.59;100.00;101589.13;112276;1193;70605;-72
2021/10/11 06:00:49;;;;;;;38.30;17.90;;;;;;;9.63;100.00;101588.64;112370;1192;72562;-73
2021/10/11 06:03:16;;;;;;;39.00;19.60;;;;;;;9.67;100.00;101588.98;112438;1193;61552;-74
2021/10/11 06:05:43;;;;;;;42.60;21.40;;;;;;;9.69;100.00;101590.67;112259;1193;61079;-75
2021/10/11 06:08:09;;;;;;;40.10;19.80;;;;;;;9.73;100.00;101590.16;112302;1192;61065;-72
2021/10/11 06:10:37;;;;;;;58.20;27.60;;;;;;;9.76;100.00;101594.63;112160;1192;72077;-74
2021/10/11 06:13:04;;;;;;;60.70;28.50;;;;;;;9.77;100.00;101597.32;112183;1192;73599;-74
2021/10/11 06:15:31;;;;;;;38.70;19.60;;;;;;;9.79;100.00;101601.73;112152;1192;61273;-73
2021/10/11 06:17:57;;;;;;;37.00;18.50;;;;;;;9.80;100.00;101604.45;112074;1193;62207;-74
2021/10/11 06:20:24;;;;;;;55.00;26.70;;;;;;;9.82;100.00;101604.27;112328;1192;75817;-75
2021/10/11 06:22:50;;;;;;;48.40;24.50;;;;;;;9.85;100.00;101603.87;112270;1193;71011;-74
2021/10/11 06:25:17;;;;;;;37.00;17.90;;;;;;;9.87;100.00;101609.33;111969;1193;72766;-73
2021/10/11 06:27:44;;;;;;;41.20;18.50;;;;;;;9.88;100.00;101608.80;112368;1194;62174;-73
2021/10/11 06:30:11;;;;;;;45.00;19.50;;;;;;;9.91;100.00;101604.45;112284;1185;61151;-74
2021/10/11 06:32:38;;;;;;;34.60;16.80;;;;;;;9.94;100.00;101603.59;112178;1193;75809;-74
2021/10/11 06:35:05;;;;;;;37.30;17.40;;;;;;;9.96;100.00;101602.55;112201;1193;61046;-74
2021/10/11 06:37:31;;;;;;;37.60;17.60;;;;;;;9.99;100.00;101605.29;112182;1193;72681;-74
2021/10/11 06:39:58;;;;;;;34.10;17.20;;;;;;;10.02;100.00;101611.76;112112;1192;61052;-73
2021/10/11 06:42:24;;;;;;;34.00;16.60;;;;;;;10.04;100.00;101615.26;112317;1193;61005;-74
2021/10/11 06:44:52;;;;;;;51.50;24.80;;;;;;;10.07;100.00;101609.79;112171;1193;61033;-73
2021/10/11 06:47:18;;;;;;;34.20;18.30;;;;;;;10.12;100.00;101609.31;112170;1194;71812;-76
2021/10/11 06:49:46;;;;;;;23.80;12.50;;;;;;;10.18;100.00;101611.16;112015;1193;72537;-75
2021/10/11 06:52:14;;;;;;;34.00;18.60;;;;;;;10.22;100.00;101614.38;112318;1193;62082;-73
2021/10/11 06:54:41;;;;;;;43.10;20.60;;;;;;;10.24;100.00;101617.32;112434;1192;61097;-74
2021/10/11 06:57:08;;;;;;;43.70;20.10;;;;;;;10.28;100.00;101612.22;111946;1192;74647;-74
2021/10/11 06:59:35;;;;;;;30.60;17.10;;;;;;;10.32;100.00;101612.77;112373;1193;72586;-74
2021/10/11 07:02:03;;;;;;;34.70;17.60;;;;;;;10.34;100.00;101618.66;112309;1192;72688;-73
2021/10/11 07:04:36;;;;;;;38.40;20.10;;;;;;;10.38;100.00;101614.58;112236;1193;62007;-73
2021/10/11 07:07:03;;;;;;;57.20;28.90;;;;;;;10.43;99.98;101613.95;112219;1193;61065;-74
2021/10/11 07:09:30;;;;;;;38.60;19.20;;;;;;;10.48;99.89;101615.04;112123;1193;75615;-73
2021/10/11 07:11:56;;;;;;;26.50;14.20;;;;;;;10.54;99.77;101618.31;112114;1193;61741;-74
2021/10/11 07:14:23;;;;;;;27.20;15.30;;;;;;;10.59;99.39;101620.95;112515;1192;72919;-74
2021/10/11 07:16:50;;;;;;;34.80;15.70;;;;;;;10.63;99.09;101628.11;112523;1192;62465;-74
2021/10/11 07:19:20;;;;;;;33.20;15.80;;;;;;;10.65;99.07;101632.63;112254;1193;61053;-75
2021/10/11 07:21:46;;;;;;;28.30;14.00;;;;;;;10.66;98.61;101642.63;112211;1192;61020;-75
2021/10/11 07:24:15;;;;;;;37.30;17.40;;;;;;;10.67;98.54;101640.28;112044;1193;61074;-75
2021/10/11 07:26:42;;;;;;;35.40;19.00;;;;;;;10.67;98.52;101638.09;112069;1192;73652;-77
2021/10/11 07:29:08;;;;;;;29.90;14.80;;;;;;;10.69;98.54;101640.23;112204;1192;61939;-76
2021/10/11 07:31:35;;;;;;;45.60;18.60;;;;;;;10.71;98.29;101634.02;112158;1193;60989;-76
2021/10/11 07:34:01;;;;;;;47.30;23.00;;;;;;;10.74;98.27;101629.48;112252;1193;61123;-75
2021/10/11 07:36:28;;;;;;;37.60;17.10;;;;;;;10.77;98.33;101632.64;112286;1192;61032;-73
2021/10/11 07:38:55;;;;;;;29.90;14.80;;;;;;;10.83;98.08;101632.30;112328;1193;72615;-74
2021/10/11 07:41:21;;;;;;;26.30;11.20;;;;;;;10.88;97.76;101633.17;111969;1192;61617;-73
2021/10/11 07:43:48;;;;;;;23.10;12.30;;;;;;;10.92;97.49;101635.25;112063;1193;60969;-73
2021/10/11 07:46:15;;;;;;;24.10;12.90;;;;;;;10.96;97.37;101641.70;112113;1192;61000;-73
2021/10/11 07:48:42;;;;;;;35.40;15.90;;;;;;;11.02;97.25;101647.90;112258;1193;71743;-73
2021/10/11 07:51:09;;;;;;;27.70;13.40;;;;;;;11.08;96.95;101647.62;112062;1194;72725;-74
2021/10/11 07:53:36;;;;;;;21.90;11.30;;;;;;;11.13;96.48;101650.48;111996;1192;61613;-75
2021/10/11 07:56:02;;;;;;;29.40;14.50;;;;;;;11.18;96.08;101654.59;112227;1193;61866;-73
2021/10/11 07:58:29;;;;;;;23.60;12.20;;;;;;;11.23;95.99;101653.74;112367;1193;75932;-72
2021/10/11 08:00:55;;;;;;;22.80;12.80;;;;;;;11.29;95.74;101650.13;112199;1193;61059;-72
2021/10/11 08:03:25;;;;;;;27.60;13.60;;;;;;;11.31;95.23;101650.27;112198;1192;72370;-73
2021/10/11 08:05:52;;;;;;;27.60;15.10;;;;;;;11.31;95.01;101656.45;112269;1193;61962;-72
2021/10/11 08:08:19;;;;;;;33.50;14.40;;;;;;;11.34;95.03;101659.15;111919;1193;61081;-73
2021/10/11 08:10:46;;;;;;;43.50;19.70;;;;;;;11.37;94.78;101662.27;112137;1193;75659;-74
2021/10/11 08:13:14;;;;;;;28.60;13.00;;;;;;;11.41;94.65;101661.92;112176;1177;71038;-74
2021/10/11 08:15:41;;;;;;;33.10;15.80;;;;;;;11.47;94.28;101661.61;112288;1193;73706;-72
2021/10/11 08:18:08;;;;;;;30.80;14.60;;;;;;;11.48;94.00;101659.30;112088;1193;61122;-73
2021/10/11 08:20:35;;;;;;;26.80;10.60;;;;;;;11.49;93.87;101666.65;112257;1193;61997;-74
2021/10/11 08:23:02;;;;;;;22.20;10.70;;;;;;;11.50;93.84;101668.15;111987;1193;74889;-75
2021/10/11 08:25:28;;;;;;;24.50;13.40;;;;;;;11.51;93.89;101669.33;112401;1193;71491;-74
2021/10/11 08:27:55;;;;;;;24.00;12.00;;;;;;;11.51;93.52;101670.56;112284;1192;61032;-73
2021/10/11 08:30:21;;;;;;;25.10;13.10;;;;;;;11.49;93.68;101667.95;112028;1193;61026;-73
2021/10/11 08:32:48;;;;;;;26.40;11.70;;;;;;;11.45;93.55;101668.31;112152;1193;61064;-73
2021/10/11 08:35:15;;;;;;;21.20;9.40;;;;;;;11.43;93.82;101668.36;112241;1193;74777;-72
2021/10/11 08:37:41;;;;;;;30.60;14.00;;;;;;;11.47;93.77;101670.06;111932;1193;72881;-75
2021/10/11 08:40:09;;;;;;;18.80;10.80;;;;;;;11.54;93.61;101665.81;112135;1193;72272;-75
2021/10/11 08:42:37;;;;;;;21.80;10.60;;;;;;;11.63;93.34;101664.04;112345;1192;61081;-73
2021/10/11 08:45:08;;;;;;;22.60;12.20;;;;;;;11.73;92.88;101661.53;112430;1192;61217;-73
2021/10/11 08:47:34;;;;;;;20.60;10.90;;;;;;;11.82;91.89;101657.08;112347;1193;75788;-75
2021/10/11 08:50:01;;;;;;;18.70;9.50;;;;;;;11.91;91.23;101655.68;112353;1192;71898;-75
2021/10/11 08:52:28;;;;;;;20.80;10.90;;;;;;;11.98;90.87;101656.35;112505;1193;72679;-74
2021/10/11 08:54:57;;;;;;;24.60;12.10;;;;;;;11.98;90.08;101658.61;112355;1193;60988;-75
2021/10/11 08:57:28;;;;;;;17.90;8.70;;;;;;;11.97;89.99;101659.39;112364;1193;60982;-73
2021/10/11 09:00:06;;;;;;;20.80;9.40;;;;;;;11.98;89.69;101661.98;112098;1192;75688;-72
2021/10/11 09:02:33;;;;;;;19.70;11.20;;;;;;;12.00;89.78;101661.11;112215;1193;70936;-73
2021/10/11 09:05:00;;;;;;;15.90;8.50;;;;;;;12.11;89.41;101665.20;112213;1192;72778;-74
2021/10/11 09:07:28;;;;;;;31.80;14.40;;;;;;;12.30;88.31;101669.42;112111;1193;62060;-71
2021/10/11 09:09:57;;;;;;;23.10;8.90;;;;;;;12.48;87.45;101668.51;112206;1192;61262;-72
2021/10/11 09:12:29;;;;;;;14.60;8.50;;;;;;;12.59;86.66;101662.10;112334;1192;75592;-75
2021/10/11 09:15:13;;;;;;;17.60;8.40;;;;;;;12.65;85.94;101665.96;112311;1193;70197;-73
2021/10/11 09:17:52;;;;;;;14.40;7.50;;;;;;;12.70;85.50;101664.46;111855;1193;73924;-75
2021/10/11 09:20:22;;;;;;;19.90;8.40;;;;;;;12.73;85.34;101662.09;112018;1193;63297;-74
2021/10/11 09:22:52;;;;;;;14.90;7.00;;;;;;;12.72;84.48;101668.50;112854;1193;61027;-72
2021/10/11 09:25:20;;;;;;;12.60;6.10;;;;;;;12.72;84.49;101665.48;111951;1193;75035;-72
2021/10/11 09:27:54;;;;;;;16.00;7.30;;;;;;;12.80;84.24;101667.46;112552;1192;71063;-72
2021/10/11 09:30:25;;;;;;;15.40;6.40;;;;;;;12.86;84.29;101667.61;111970;1192;72766;-74
2021/10/11 09:33:05;;;;;;;39.00;22.10;;;;;;;12.92;84.77;101667.96;112200;1192;62039;-74
2021/10/11 09:35:33;;;;;;;15.60;8.60;;;;;;;13.02;83.46;101675.42;112003;1193;61055;-73
2021/10/11 09:38:00;;;;;;;26.90;14.90;;;;;;;13.09;82.64;101674.16;111889;1192;73752;-73
2021/10/11 09:40:40;;;;;;;29.40;15.10;;;;;;;13.21;83.08;101673.86;112213;1193;71082;-73
2021/10/11 09:43:19;;;;;;;24.30;8.60;;;;;;;13.41;82.76;101673.13;112430;1192;73734;-73
2021/10/11 09:45:46;;;;;;;14.10;5.70;;;;;;;13.74;80.99;101672.36;112379;1193;62190;-73
2021/10/11 09:48:12;;;;;;;33.90;16.00;;;;;;;13.94;78.83;101669.02;112300;1193;61435;-73
2021/10/11 09:50:40;;;;;;;14.30;5.50;;;;;;;14.13;78.73;101666.38;112181;1193;74637;-72
2021/10/11 09:53:11;;;;;;;12.40;6.00;;;;;;;14.19;77.03;101662.61;112172;1193;70158;-73
2021/10/11 09:55:40;;;;;;;11.90;5.00;;;;;;;14.12;76.15;101662.34;111822;1193;72542;-75
2021/10/11 09:58:11;;;;;;;32.10;16.00;;;;;;;14.12;77.06;101656.91;112442;1193;61065;-73
2021/10/11 10:00:39;;;;;;;12.40;5.30;;;;;;;14.18;77.05;101656.71;112457;1193;60971;-72
2021/10/11 10:03:07;;;;;;;10.20;4.90;;;;;;;14.23;75.61;101654.85;112385;1192;74480;-74
2021/10/11 10:05:41;;;;;;;7.30;3.90;;;;;;;14.25;75.10;101657.17;112114;1193;71169;-71
2021/10/11 10:08:13;;;;;;;10.00;4.50;;;;;;;14.24;74.37;101656.30;112164;1193;74212;-72
2021/10/11 10:10:41;;;;;;;9.10;4.70;;;;;;;14.19;73.64;101652.96;112094;1193;61050;-73
2021/10/11 10:13:19;;;;;;;9.50;3.90;;;;;;;14.19;74.02;101654.23;111989;1192;62298;-73
2021/10/11 10:15:47;;;;;;;12.80;4.20;;;;;;;14.25;74.12;101645.76;112110;1192;73014;-72
2021/10/11 10:18:17;;;;;;;8.80;3.10;;;;;;;14.28;73.12;101649.14;112334;1193;70757;-73
2021/10/11 10:20:58;;;;;;;8.80;2.60;;;;;;;14.19;72.84;101645.13;112428;1193;72644;-72
2021/10/11 10:23:33;;;;;;;12.60;4.10;;;;;;;14.11;73.37;101647.52;111965;1193;61300;-72
2021/10/11 10:26:02;;;;;;;6.00;3.20;;;;;;;14.13;73.71;101645.87;111984;1192;61912;-72
2021/10/11 10:28:54;;;;;;;9.50;3.00;;;;;;;14.32;73.95;101647.79;112429;1192;75662;-73
2021/10/11 10:31:27;;;;;;;5.00;2.80;;;;;;;14.55;72.82;101645.23;112217;1192;72538;-73
2021/10/11 10:33:55;;;;;;;6.10;2.20;;;;;;;14.61;71.94;101643.18;112236;1193;72629;-72
2021/10/11 10:36:25;;;;;;;8.40;3.20;;;;;;;14.55;71.56;101646.58;111861;1193;61947;-73
2021/10/11 10:39:07;;;;;;;8.00;2.40;;;;;;;14.64;70.84;101636.33;111914;1192;61482;-74
2021/10/11 10:41:34;;;;;;;8.90;2.20;;;;;;;14.64;69.54;101638.80;112300;1192;74739;-72
2021/10/11 10:44:20;;;;;;;7.50;2.00;;;;;;;14.60;69.26;101634.35;112143;1193;71000;-71
2021/10/11 10:46:54;;;;;;;;;;;;;;;14.61;67.94;101633.63;112325;1193;73261;-71
2021/10/11 10:49:45;;;;;;;5.50;1.80;;;;;;;14.61;68.68;101626.73;112331;1192;61628;-73
2021/10/11 10:52:17;;;;;;;8.60;2.30;;;;;;;14.66;68.87;101625.43;112164;1193;61193;-72
2021/10/11 10:54:50;;;;;;;8.30;2.00;;;;;;;14.75;69.01;101622.23;112953;1193;75749;-73
2021/10/11 10:57:20;;;;;;;8.40;1.80;;;;;;;14.83;68.08;101620.95;112083;1193;72233;-73
2021/10/11 10:59:51;;;;;;;6.80;1.70;;;;;;;14.88;67.81;101619.40;112266;1192;72651;-73
2021/10/11 11:02:18;;;;;;;9.50;1.70;;;;;;;14.91;66.58;101623.77;112249;1192;60988;-74
2021/10/11 11:04:55;;;;;;;6.10;1.60;;;;;;;14.90;65.65;101622.12;112188;1192;61195;-72
2021/10/11 11:07:42;;;;;;;9.00;1.80;;;;;;;14.85;65.63;101623.20;112294;1192;75708;-73
2021/10/11 11:10:12;;;;;;;7.90;1.20;;;;;;;14.75;64.68;101626.36;112271;1192;71053;-73
2021/10/11 11:12:58;;;;;;;7.80;1.50;;;;;;;14.70;63.43;101626.86;112959;1193;73153;-73